createdAt,value
2022-07-26T00:02:01.457Z,99940.87
2022-07-26T00:05:05.835Z,99935.16
2022-07-26T00:08:11.786Z,99938.69
2022-07-26T00:11:15.732Z,99926.88
2022-07-26T00:14:18.565Z,99933.69
2022-07-26T00:17:21.465Z,99935.94
2022-07-26T00:20:24.217Z,99941.09
2022-07-26T00:23:30.761Z,99937.44
2022-07-26T00:26:33.929Z,99936.22
2022-07-26T00:29:37.196Z,99943.72
2022-07-26T00:32:39.905Z,99935.94
2022-07-26T00:35:42.892Z,99940.25
2022-07-26T00:38:45.743Z,99937.84
2022-07-26T00:41:48.694Z,99924.94
2022-07-26T00:44:51.527Z,99920.22
2022-07-26T00:47:54.642Z,99923.63
2022-07-26T00:50:57.708Z,99926.63
2022-07-26T00:54:00.755Z,99919.63
2022-07-26T00:57:03.821Z,99911.56
2022-07-26T01:00:10.062Z,99910.91
2022-07-26T01:03:12.888Z,99907.75
2022-07-26T01:06:16.004Z,99904.78
2022-07-26T01:09:19.676Z,99904.88
2022-07-26T01:12:22.641Z,99911.88
2022-07-26T01:15:25.285Z,99907.34
2022-07-26T01:18:28.272Z,99915.72
2022-07-26T01:21:31.631Z,99901.97
2022-07-26T01:24:34.681Z,99909.69
2022-07-26T01:27:40.399Z,99903.63
2022-07-26T01:30:43.381Z,99901.97
2022-07-26T01:33:46.312Z,99886.53
2022-07-26T01:36:49.412Z,99896.31
2022-07-26T01:39:52.153Z,99902.47
2022-07-26T01:42:55.256Z,99902.16
2022-07-26T01:45:58.106Z,99903.28
2022-07-26T01:49:01.881Z,99900.84
2022-07-26T01:52:05.063Z,99882.41
2022-07-26T01:55:08.889Z,99899.31
2022-07-26T01:58:11.611Z,99910.56
2022-07-26T02:01:14.670Z,99900.78
2022-07-26T02:04:36.286Z,99897.78
2022-07-26T02:07:44.449Z,99892.56
2022-07-26T02:11:04.058Z,99891.34
2022-07-26T02:14:07.049Z,99883.53
2022-07-26T02:17:10.745Z,99884.84
2022-07-26T02:20:16.961Z,99886.75
2022-07-26T02:23:21.102Z,99868.72
2022-07-26T02:26:23.767Z,99872.50
2022-07-26T02:29:27.251Z,99878.50
2022-07-26T02:32:29.808Z,99879.84
2022-07-26T02:35:32.793Z,99871.37
2022-07-26T02:38:35.331Z,99869.72
2022-07-26T02:41:38.728Z,99856.91
2022-07-26T02:44:41.866Z,99871.34
2022-07-26T02:47:54.147Z,99863.81
2022-07-26T02:50:56.764Z,99864.00
2022-07-26T02:53:59.761Z,99861.91
2022-07-26T02:57:02.456Z,99858.91
2022-07-26T03:00:06.478Z,99860.25
2022-07-26T03:03:14.116Z,99850.91
2022-07-26T03:06:18.336Z,99850.22
2022-07-26T03:09:21.002Z,99842.56
2022-07-26T03:12:25.189Z,99845.44
2022-07-26T03:15:27.845Z,99821.97
2022-07-26T03:18:31.102Z,99846.34
2022-07-26T03:21:33.763Z,99849.91
2022-07-26T03:24:37.453Z,99848.09
2022-07-26T03:27:40.266Z,99826.84
2022-07-26T03:30:43.324Z,99841.44
2022-07-26T03:33:46.068Z,99857.22
2022-07-26T03:36:49.430Z,99851.66
2022-07-26T03:39:52.228Z,99854.63
2022-07-26T03:42:55.477Z,99823.16
2022-07-26T03:45:58.105Z,99839.75
2022-07-26T03:49:01.583Z,99842.00
2022-07-26T03:52:04.367Z,99845.22
2022-07-26T03:55:26.611Z,99837.78
2022-07-26T03:58:29.583Z,99817.53
2022-07-26T04:01:33.226Z,99825.09
2022-07-26T04:04:36.179Z,99835.00
2022-07-26T04:07:52.555Z,99837.44
2022-07-26T04:10:56.497Z,99828.69
2022-07-26T04:14:00.298Z,99840.34
2022-07-26T04:17:03.303Z,99842.38
2022-07-26T04:20:07.635Z,99836.69
2022-07-26T04:23:12.305Z,99842.34
2022-07-26T04:26:15.294Z,99818.56
2022-07-26T04:29:18.184Z,99837.59
2022-07-26T04:32:20.897Z,99833.09
2022-07-26T04:35:24.169Z,99837.03
2022-07-26T04:38:26.958Z,99840.56
2022-07-26T04:41:30.858Z,99842.81
2022-07-26T04:44:33.576Z,99844.81
2022-07-26T04:47:36.744Z,99838.84
2022-07-26T04:50:39.924Z,99834.91
2022-07-26T04:53:42.827Z,99836.13
2022-07-26T04:56:45.453Z,99834.13
2022-07-26T05:00:03.347Z,99825.03
2022-07-26T05:03:11.237Z,99833.19
2022-07-26T05:06:14.455Z,99835.06
2022-07-26T05:09:17.584Z,99829.12
2022-07-26T05:12:20.471Z,99816.19
2022-07-26T05:15:23.388Z,99813.44
2022-07-26T05:18:27.195Z,99818.31
2022-07-26T05:21:32.007Z,99809.41
2022-07-26T05:24:34.935Z,99802.34
2022-07-26T05:27:39.027Z,99804.06
2022-07-26T05:30:42.042Z,99806.69
2022-07-26T05:33:44.695Z,99808.63
2022-07-26T05:36:47.684Z,99801.56
2022-07-26T05:39:50.648Z,99803.41
2022-07-26T05:42:53.732Z,99808.06
2022-07-26T05:45:57.028Z,99791.75
2022-07-26T05:49:00.083Z,99777.75
2022-07-26T05:52:03.623Z,99797.63
2022-07-26T05:55:07.385Z,99792.97
2022-07-26T05:58:10.093Z,99795.94
2022-07-26T06:01:13.145Z,99801.44
2022-07-26T06:04:16.311Z,99801.34
2022-07-26T06:07:19.056Z,99800.97
2022-07-26T06:10:22.031Z,99810.81
2022-07-26T06:13:24.659Z,99818.84
2022-07-26T06:16:27.674Z,99811.94
2022-07-26T06:19:31.083Z,99809.91
2022-07-26T06:22:34.069Z,99811.47
2022-07-26T06:25:36.883Z,99810.72
2022-07-26T06:28:39.975Z,99809.47
2022-07-26T06:31:42.699Z,99812.03
2022-07-26T06:34:45.769Z,99800.75
2022-07-26T06:37:48.459Z,99799.19
2022-07-26T06:40:51.556Z,99798.69
2022-07-26T06:43:54.222Z,99802.56
2022-07-26T06:46:57.281Z,99804.34
2022-07-26T06:49:59.941Z,99807.91
2022-07-26T06:53:02.936Z,99802.00
2022-07-26T06:56:06.052Z,99807.09
2022-07-26T06:59:09.621Z,99800.12
2022-07-26T07:02:12.447Z,99804.75
2022-07-26T07:05:15.675Z,99813.62
2022-07-26T07:08:18.723Z,99810.72
2022-07-26T07:11:23.060Z,99828.63
2022-07-26T07:14:25.765Z,99836.22
2022-07-26T07:17:28.780Z,99842.59
2022-07-26T07:20:31.603Z,99842.94
2022-07-26T07:23:34.581Z,99842.44
2022-07-26T07:26:37.301Z,99843.75
2022-07-26T07:29:42.119Z,99836.19
2022-07-26T07:32:46.085Z,99840.69
2022-07-26T07:35:49.044Z,99843.75
2022-07-26T07:38:51.997Z,99836.84
2022-07-26T07:41:54.957Z,99839.50
2022-07-26T07:44:57.598Z,99835.22
2022-07-26T07:48:00.575Z,99838.41
2022-07-26T07:51:03.244Z,99831.72
2022-07-26T07:54:07.254Z,99837.28
2022-07-26T07:57:11.230Z,99831.53
2022-07-26T08:00:19.469Z,99833.72
2022-07-26T08:03:38.929Z,99822.84
2022-07-26T08:06:42.296Z,99820.53
2022-07-26T08:09:53.292Z,99824.50
2022-07-26T08:12:55.949Z,99810.09
2022-07-26T08:15:59.306Z,99815.59
2022-07-26T08:19:03.833Z,99819.06
2022-07-26T08:22:08.356Z,99807.72
2022-07-26T08:25:11.113Z,99815.38
2022-07-26T08:28:37.533Z,99806.34
2022-07-26T08:31:37.032Z,99803.81
2022-07-26T08:34:40.009Z,99797.88
2022-07-26T08:37:42.753Z,99788.69
2022-07-26T08:40:45.772Z,99796.81
2022-07-26T08:43:51.653Z,99784.78
2022-07-26T08:46:55.586Z,99784.28
2022-07-26T08:49:58.374Z,99791.00
2022-07-26T08:53:04.169Z,99790.44
2022-07-26T08:56:07.792Z,99778.09
2022-07-26T08:59:20.541Z,99777.31
2022-07-26T09:02:40.541Z,99777.78
2022-07-26T09:05:43.455Z,99777.56
2022-07-26T09:08:53.620Z,99775.16
2022-07-26T09:11:57.708Z,99768.75
2022-07-26T09:15:01.643Z,99765.69
2022-07-26T09:18:06.011Z,99770.25
2022-07-26T09:21:25.626Z,99765.28
2022-07-26T09:24:35.759Z,99773.59
2022-07-26T09:27:38.493Z,99776.50
2022-07-26T09:30:52.579Z,99775.13
2022-07-26T09:33:55.320Z,99775.84
2022-07-26T09:36:58.270Z,99788.97
2022-07-26T09:40:05.474Z,99768.06
2022-07-26T09:43:09.957Z,99776.84
2022-07-26T09:46:13.170Z,99784.81
2022-07-26T09:49:21.661Z,99794.50
2022-07-26T09:52:24.646Z,99791.06
2022-07-26T09:55:35.045Z,99797.25
2022-07-26T09:58:42.160Z,99789.63
2022-07-26T10:01:45.893Z,99790.06
2022-07-26T10:09:10.816Z,99792.63
2022-07-26T10:12:16.668Z,99784.09
2022-07-26T10:15:40.544Z,99793.88
2022-07-26T10:18:44.997Z,99793.91
2022-07-26T10:21:47.809Z,99790.94
2022-07-26T10:24:57.561Z,99788.37
2022-07-26T10:28:01.017Z,99790.28
2022-07-26T10:31:25.966Z,99780.72
2022-07-26T10:34:37.929Z,99786.84
2022-07-26T10:47:04.431Z,99779.28
2022-07-26T10:50:08.283Z,99775.69
2022-07-26T10:53:19.402Z,99780.03
2022-07-26T10:56:22.481Z,99781.91
2022-07-26T10:59:55.006Z,99775.03
2022-07-26T11:02:59.593Z,99779.66
2022-07-26T11:06:12.631Z,99774.53
2022-07-26T11:09:16.162Z,99763.28
2022-07-26T11:12:20.226Z,99761.03
2022-07-26T11:15:23.144Z,99749.94
2022-07-26T11:18:30.768Z,99757.31
2022-07-26T11:21:33.850Z,99749.94
2022-07-26T11:24:40.976Z,99754.19
2022-07-26T11:28:02.072Z,99751.16
2022-07-26T11:31:04.864Z,99746.00
2022-07-26T11:34:20.473Z,99752.16
2022-07-26T11:37:23.170Z,99747.81
2022-07-26T11:40:45.229Z,99751.03
2022-07-26T11:43:49.111Z,99743.13
2022-07-26T11:46:52.449Z,99758.94
2022-07-26T11:53:22.718Z,99741.63
2022-07-26T11:56:27.756Z,99740.06
2022-07-26T11:59:34.372Z,99737.13
2022-07-26T12:02:37.147Z,99729.47
2022-07-26T12:05:42.090Z,99737.31
2022-07-26T12:08:55.741Z,99732.78
2022-07-26T12:11:59.772Z,99727.25
2022-07-26T12:15:05.727Z,99734.28
2022-07-26T12:18:10.666Z,99734.59
2022-07-26T12:21:13.305Z,99719.81
2022-07-26T12:24:36.216Z,99727.88
2022-07-26T12:27:46.651Z,99723.38
2022-07-26T12:30:49.669Z,99712.56
2022-07-26T12:33:52.592Z,99711.75
2022-07-26T12:36:55.656Z,99716.69
2022-07-26T12:40:10.706Z,99707.25
2022-07-26T12:47:43.033Z,99721.53
2022-07-26T12:50:46.056Z,99710.28
2022-07-26T12:53:48.772Z,99704.31
2022-07-26T12:56:51.785Z,99707.44
2022-07-26T13:04:24.819Z,99700.84
2022-07-26T13:07:27.896Z,99704.25
2022-07-26T13:10:33.671Z,99711.69
2022-07-26T13:13:37.884Z,99708.25
2022-07-26T13:16:40.611Z,99700.44
2022-07-26T13:19:44.245Z,99714.28
2022-07-26T13:22:46.915Z,99702.50
2022-07-26T13:25:50.761Z,99717.31
2022-07-26T13:28:53.522Z,99733.22
2022-07-26T13:31:58.055Z,99740.66
2022-07-26T13:35:00.686Z,99737.34
2022-07-26T13:38:03.705Z,99743.47
2022-07-26T13:41:06.479Z,99760.16
2022-07-26T13:44:09.871Z,99770.94
2022-07-26T13:47:14.480Z,99807.72
2022-07-26T13:50:17.607Z,99798.69
2022-07-26T13:53:20.289Z,99808.38
2022-07-26T13:56:23.270Z,99840.19
2022-07-26T13:59:26.258Z,99840.75
2022-07-26T14:02:29.283Z,99851.81
2022-07-26T14:05:32.250Z,99839.25
2022-07-26T14:08:34.932Z,99833.53
2022-07-26T14:11:39.006Z,99850.31
2022-07-26T14:14:41.735Z,99856.97
2022-07-26T14:17:47.958Z,99857.38
2022-07-26T14:20:50.720Z,99838.06
2022-07-26T14:23:55.857Z,99857.63
2022-07-26T14:26:59.868Z,99848.28
2022-07-26T14:30:05.809Z,99843.09
2022-07-26T14:33:09.593Z,99855.47
2022-07-26T14:36:13.763Z,99863.91
2022-07-26T14:39:16.432Z,99868.34
2022-07-26T14:42:19.429Z,99871.37
2022-07-26T14:45:22.249Z,99861.84
2022-07-26T14:48:51.904Z,99876.25
2022-07-26T14:51:48.113Z,99868.72
2022-07-26T14:54:51.773Z,99875.12
2022-07-26T14:57:54.463Z,99862.97
2022-07-26T15:00:57.975Z,99866.47
2022-07-26T15:04:00.737Z,99859.94
2022-07-26T15:07:04.054Z,99855.28
2022-07-26T15:10:09.178Z,99861.00
2022-07-26T15:13:13.753Z,99845.94
2022-07-26T15:16:16.441Z,99849.16
2022-07-26T15:19:23.713Z,99856.91
2022-07-26T15:22:28.390Z,99857.75
2022-07-26T15:25:31.374Z,99872.16
2022-07-26T15:28:34.122Z,99886.00
2022-07-26T15:31:37.941Z,99869.84
2022-07-26T15:34:40.770Z,99886.44
2022-07-26T15:37:44.207Z,99869.06
2022-07-26T15:40:47.016Z,99877.13
2022-07-26T15:43:49.984Z,99878.69
2022-07-26T15:46:53.054Z,99882.16
2022-07-26T15:49:56.045Z,99883.06
2022-07-26T15:52:58.826Z,99886.72
2022-07-26T15:56:02.884Z,99885.53
2022-07-26T15:59:09.212Z,99890.31
2022-07-26T16:02:12.251Z,99890.78
2022-07-26T16:05:15.236Z,99885.69
2022-07-26T16:08:17.913Z,99897.78
2022-07-26T16:11:21.099Z,99903.56
2022-07-26T16:14:23.847Z,99903.69
2022-07-26T16:17:26.788Z,99900.75
2022-07-26T16:20:29.557Z,99895.53
2022-07-26T16:23:32.697Z,99905.38
2022-07-26T16:26:36.397Z,99902.19
2022-07-26T16:29:39.452Z,99913.50
2022-07-26T16:32:42.833Z,99915.75
2022-07-26T16:35:45.793Z,99914.16
2022-07-26T16:38:48.461Z,99914.97
2022-07-26T16:41:51.441Z,99908.13
2022-07-26T16:44:54.259Z,99909.47
2022-07-26T16:48:00.027Z,99918.38
2022-07-26T16:51:03.107Z,99901.69
2022-07-26T16:54:06.196Z,99915.28
2022-07-26T16:57:08.943Z,99905.03
2022-07-26T17:00:15.740Z,99914.22
2022-07-26T17:03:19.450Z,99932.91
2022-07-26T17:06:22.677Z,99919.16
2022-07-26T17:09:25.313Z,99921.38
2022-07-26T17:12:28.331Z,99913.56
2022-07-26T17:15:30.973Z,99913.12
2022-07-26T17:18:33.993Z,99907.63
2022-07-26T17:21:36.631Z,99923.03
2022-07-26T17:24:39.754Z,99934.06
2022-07-26T17:27:42.558Z,99933.88
2022-07-26T17:30:45.536Z,99936.75
2022-07-26T17:33:48.289Z,99926.72
2022-07-26T17:37:01.647Z,99938.31
2022-07-26T17:40:09.116Z,99941.00
2022-07-26T17:43:12.173Z,99942.28
2022-07-26T17:46:15.601Z,99942.41
2022-07-26T17:49:18.677Z,99951.84
2022-07-26T17:52:21.380Z,99955.91
2022-07-26T17:55:24.479Z,99956.22
2022-07-26T17:58:27.211Z,99956.56
2022-07-26T18:01:30.520Z,99951.50
2022-07-26T18:04:33.541Z,99954.47
2022-07-26T18:07:36.321Z,99951.22
2022-07-26T18:10:39.350Z,99953.31
2022-07-26T18:13:41.988Z,99940.97
2022-07-26T18:16:48.302Z,99951.12
2022-07-26T18:19:57.232Z,99935.34
2022-07-26T18:23:00.216Z,99934.47
2022-07-26T18:26:03.868Z,99950.50
2022-07-26T18:29:07.063Z,99945.28
2022-07-26T18:32:09.828Z,99946.75
2022-07-26T18:35:12.803Z,99952.59
2022-07-26T18:38:15.820Z,99952.25
2022-07-26T18:41:19.017Z,99961.88
2022-07-26T18:44:22.717Z,99962.22
2022-07-26T18:47:25.783Z,99959.16
2022-07-26T18:50:31.008Z,99961.69
2022-07-26T18:53:35.320Z,99963.31
2022-07-26T18:56:38.040Z,99968.97
2022-07-26T18:59:41.362Z,99971.88
2022-07-26T19:02:45.010Z,99966.59
2022-07-26T19:05:48.213Z,99969.66
2022-07-26T19:08:51.196Z,99978.53
2022-07-26T19:11:54.184Z,99977.47
2022-07-26T19:14:59.830Z,99974.34
2022-07-26T19:18:11.172Z,99983.31
2022-07-26T19:21:13.908Z,99981.72
2022-07-26T19:24:16.914Z,99980.38
2022-07-26T19:27:20.762Z,99987.06
2022-07-26T19:30:24.990Z,99990.25
2022-07-26T19:33:29.425Z,99992.31
2022-07-26T19:36:32.417Z,100002.09
2022-07-26T19:39:35.286Z,99994.34
2022-07-26T19:42:38.499Z,100007.69
2022-07-26T19:45:41.290Z,100010.94
2022-07-26T19:48:44.498Z,100014.84
2022-07-26T19:51:49.306Z,100002.28
2022-07-26T19:54:52.360Z,100001.50
2022-07-26T19:57:54.999Z,100006.06
2022-07-26T20:00:58.188Z,99996.06
2022-07-26T20:04:02.984Z,100013.19
2022-07-26T20:07:05.760Z,100012.88
2022-07-26T20:10:09.653Z,100011.78
2022-07-26T20:13:13.798Z,100015.84
2022-07-26T20:16:17.121Z,100022.97
2022-07-26T20:19:19.814Z,100012.53
2022-07-26T20:22:23.521Z,100021.91
2022-07-26T20:25:26.329Z,100010.37
2022-07-26T20:28:29.565Z,100020.34
2022-07-26T20:31:32.200Z,100018.47
2022-07-26T20:34:35.252Z,100031.22
2022-07-26T20:37:38.020Z,100024.88
2022-07-26T20:40:41.158Z,100027.50
2022-07-26T20:43:45.277Z,100030.13
2022-07-26T20:46:48.915Z,100032.00
2022-07-26T20:49:51.614Z,100029.78
2022-07-26T20:52:54.700Z,100035.72
2022-07-26T20:55:57.453Z,100032.00
2022-07-26T20:59:02.356Z,100037.44
2022-07-26T21:02:05.169Z,100032.59
2022-07-26T21:05:08.909Z,100044.56
2022-07-26T21:08:11.808Z,100047.28
2022-07-26T21:11:14.930Z,100043.87
2022-07-26T21:14:17.546Z,100050.87
2022-07-26T21:17:20.609Z,100053.63
2022-07-26T21:20:35.557Z,100052.88
2022-07-26T21:23:38.601Z,100053.59
2022-07-26T21:26:42.249Z,100041.09
2022-07-26T21:29:45.906Z,100055.06
2022-07-26T21:32:48.602Z,100059.34
2022-07-26T21:35:51.641Z,100065.41
2022-07-26T21:38:54.314Z,100054.25
2022-07-26T21:41:57.614Z,100076.16
2022-07-26T21:45:00.211Z,100080.38
2022-07-26T21:48:03.598Z,100073.72
2022-07-26T21:51:06.269Z,100076.94
2022-07-26T21:54:09.260Z,100083.16
2022-07-26T21:57:11.921Z,100075.34
2022-07-26T22:00:16.209Z,100080.31
2022-07-26T22:03:19.111Z,100080.47
2022-07-26T22:06:21.916Z,100089.34
2022-07-26T22:09:24.883Z,100088.78
2022-07-26T22:12:30.052Z,100084.03
2022-07-26T22:15:34.202Z,100083.31
2022-07-26T22:18:37.240Z,100093.56
2022-07-26T22:21:40.407Z,100090.72
2022-07-26T22:24:43.094Z,100070.06
2022-07-26T22:27:46.018Z,100088.47
2022-07-26T22:30:48.843Z,100087.69
2022-07-26T22:33:51.818Z,100088.22
2022-07-26T22:36:54.576Z,100089.44
2022-07-26T22:39:57.564Z,100089.97
2022-07-26T22:43:00.542Z,100096.91
2022-07-26T22:46:03.888Z,100088.94
2022-07-26T22:49:06.641Z,100091.22
2022-07-26T22:52:15.297Z,100091.31
2022-07-26T22:55:18.068Z,100098.34
2022-07-26T22:58:21.230Z,100091.63
2022-07-26T23:01:23.987Z,100090.75
2022-07-26T23:04:27.074Z,100088.47
2022-07-26T23:07:32.157Z,100109.69
2022-07-26T23:10:35.481Z,100101.41
2022-07-26T23:13:38.291Z,100109.31
2022-07-26T23:16:41.318Z,100104.84
2022-07-26T23:19:44.021Z,100093.25
2022-07-26T23:22:47.117Z,100111.59
2022-07-26T23:28:54.388Z,100102.81
2022-07-26T23:31:57.354Z,100122.31
2022-07-26T23:35:00.417Z,100099.03
2022-07-26T23:38:03.092Z,100114.66
2022-07-26T23:41:06.134Z,100112.69
2022-07-26T23:44:08.873Z,100116.38
2022-07-26T23:47:11.992Z,100110.19
2022-07-26T23:50:15.451Z,100106.75
2022-07-26T23:53:18.914Z,100108.66
2022-07-26T23:56:29.531Z,100112.34
2022-07-26T23:59:32.455Z,100109.78
